Time;durP1;ratioP1;P1;durP2;ratioP2;P2;SDS_P1;SDS_P2;PMS_P1;PMS_P2;Temp;Humidity;BMP_temperature;BMP_pressure;BME280_temperature;BME280_humidity;BME280_pressure;Samples;Min_cycle;Max_cycle;Signal;HPM_P1;HPM_P2
2021/06/15 00:00:06;;;;;;;0.10;0.10;;;;;;;15.85;73.38;101198.69;5062269;28;20053;-91
2021/06/15 00:02:35;;;;;;;0.20;0.20;;;;;;;15.53;73.25;101148.19;5048701;28;20059;-90
2021/06/15 00:05:06;;;;;;;0.10;0.10;;;;;;;15.43;73.58;101154.69;5042682;28;20046;-93
2021/06/15 00:07:35;;;;;;;0.10;0.10;;;;;;;15.20;73.65;101118.84;5061818;28;20044;-92
2021/06/15 00:13:28;;;;;;;0.10;0.10;;;;;;;15.30;74.29;101175.44;5043957;28;20114;-91
2021/06/15 00:15:58;;;;;;;0.10;0.10;;;;;;;15.51;74.41;101221.72;5057211;28;20048;-92
2021/06/15 00:18:33;;;;;;;0.10;0.10;;;;;;;15.54;74.67;101223.91;5047255;28;20425;-93
2021/06/15 00:21:38;;;;;;;0.10;0.10;;;;;;;15.32;75.90;101227.28;5066162;28;20409;-91
2021/06/15 00:24:35;;;;;;;0.10;0.10;;;;;;;15.32;75.56;101230.81;5049819;28;20052;-90
2021/06/15 00:27:31;;;;;;;0.20;0.20;;;;;;;15.42;74.78;101233.38;5051295;28;20041;-92
2021/06/15 00:30:31;;;;;;;0.10;0.10;;;;;;;15.31;75.64;101223.69;5040972;28;20045;-93
2021/06/15 00:33:05;;;;;;;0.10;0.10;;;;;;;15.24;76.03;101215.84;5071219;28;20044;-91
2021/06/15 00:35:34;;;;;;;0.20;0.20;;;;;;;14.91;76.29;101199.34;5043310;28;20884;-92
2021/06/15 00:38:06;;;;;;;0.10;0.10;;;;;;;15.15;76.96;101231.38;5035834;28;21838;-92
2021/06/15 00:40:34;;;;;;;0.10;0.10;;;;;;;15.15;76.54;101225.88;5041006;28;20049;-93
2021/06/15 00:43:34;;;;;;;0.10;0.10;;;;;;;15.08;77.09;101229.00;5053731;28;20536;-93
2021/06/15 00:46:12;;;;;;;0.10;0.10;;;;;;;15.01;77.05;101216.75;5051488;28;20054;-94
2021/06/15 00:49:05;;;;;;;0.10;0.10;;;;;;;15.07;77.01;101234.78;5053389;28;20053;-93
2021/06/15 00:51:35;;;;;;;0.10;0.10;;;;;;;15.03;76.97;101239.22;5055762;28;20076;-91
2021/06/15 00:54:05;;;;;;;0.10;0.10;;;;;;;14.94;77.66;101225.34;5047766;28;20052;-93
2021/06/15 00:56:34;;;;;;;0.20;0.20;;;;;;;14.58;78.06;101179.25;5049907;28;20052;-92
2021/06/15 00:59:58;;;;;;;0.20;0.20;;;;;;;14.96;77.57;101232.16;5049233;28;20053;-91
2021/06/15 01:02:35;;;;;;;0.15;0.15;;;;;;;14.93;76.99;101234.69;5054847;28;20523;-90
2021/06/15 01:05:06;;;;;;;0.10;0.10;;;;;;;14.89;77.57;101226.25;5038417;28;20049;-93
2021/06/15 01:07:44;;;;;;;0.30;0.10;;;;;;;14.86;77.86;101228.75;5060664;28;20500;-93
2021/06/15 01:10:43;;;;;;;0.13;0.13;;;;;;;14.89;78.00;101231.72;5066682;28;20045;-94
2021/06/15 01:16:54;;;;;;;0.13;0.13;;;;;;;14.55;78.73;101199.00;5047472;28;20056;-92
2021/06/15 01:20:02;;;;;;;0.10;0.10;;;;;;;14.95;76.73;101246.97;5059424;28;20051;-90
2021/06/15 01:22:46;;;;;;;0.13;0.13;;;;;;;14.41;77.31;101168.78;5039144;28;20515;-93
2021/06/15 01:25:49;;;;;;;0.10;0.10;;;;;;;14.90;77.70;101246.22;5053384;28;20045;-90
2021/06/15 01:28:34;;;;;;;0.10;0.10;;;;;;;14.66;78.50;101207.94;5037321;28;20435;-92
2021/06/15 01:31:09;;;;;;;0.10;0.10;;;;;;;14.62;79.05;101224.09;5045252;28;20057;-90
2021/06/15 01:33:53;;;;;;;0.10;0.10;;;;;;;14.68;78.32;101231.19;5055977;28;20041;-90
2021/06/15 01:40:55;;;;;;;;;;;;;;;14.74;79.44;101242.91;5070095;28;20052;-91
2021/06/15 01:43:34;;;;;;;0.20;0.20;;;;;;;14.60;79.34;101218.94;5060902;28;20301;-92
2021/06/15 01:46:11;;;;;;;0.20;0.20;;;;;;;14.78;77.79;101239.28;5038387;28;20060;-91
2021/06/15 01:48:48;;;;;;;0.15;0.15;;;;;;;14.85;78.79;101238.09;5046183;28;20493;-91
2021/06/15 01:51:31;;;;;;;0.20;0.20;;;;;;;14.76;79.20;101243.41;5060376;28;20049;-91
2021/06/15 01:57:54;;;;;;;0.10;0.10;;;;;;;14.72;79.53;101239.63;5046517;28;20064;-92
2021/06/15 02:00:26;;;;;;;0.15;0.15;;;;;;;14.68;79.17;101214.75;5059567;28;20052;-91
2021/06/15 02:03:01;;;;;;;0.10;0.10;;;;;;;14.77;79.10;101234.88;5059783;28;20048;-90
2021/06/15 02:05:47;;;;;;;0.20;0.20;;;;;;;14.74;78.51;101207.28;5069772;28;20044;-91
2021/06/15 02:08:22;;;;;;;0.10;0.10;;;;;;;14.98;77.22;101245.56;5060136;28;20049;-91
2021/06/15 02:11:09;;;;;;;0.10;0.10;;;;;;;14.64;77.27;101189.06;5060270;28;20064;-91
2021/06/15 02:14:24;;;;;;;0.10;0.10;;;;;;;14.85;79.09;101249.88;5050360;28;20493;-91
2021/06/15 02:17:14;;;;;;;0.20;0.20;;;;;;;14.90;78.24;101252.53;5049338;28;20046;-91
2021/06/15 02:20:07;;;;;;;0.20;0.20;;;;;;;14.62;79.06;101218.63;5024582;28;20053;-90
2021/06/15 02:22:36;;;;;;;0.10;0.10;;;;;;;14.59;78.40;101189.91;5056611;28;20049;-92
2021/06/15 02:25:06;;;;;;;0.20;0.20;;;;;;;14.82;79.07;101236.75;5053895;28;20050;-92
2021/06/15 02:27:41;;;;;;;0.10;0.10;;;;;;;14.90;78.41;101240.75;5042994;28;20049;-92
2021/06/15 02:30:18;;;;;;;0.10;0.10;;;;;;;14.92;78.03;101255.78;5042081;28;20048;-92
2021/06/15 02:32:57;;;;;;;0.20;0.20;;;;;;;14.69;78.78;101249.25;5058551;28;20060;-93
2021/06/15 02:35:28;;;;;;;0.10;0.10;;;;;;;14.60;79.98;101260.00;5049500;28;20060;-92
2021/06/15 02:38:02;;;;;;;0.10;0.10;;;;;;;14.52;80.30;101273.56;5051562;28;20490;-90
2021/06/15 02:40:32;;;;;;;0.20;0.20;;;;;;;14.48;79.82;101259.63;5054312;28;20512;-91
2021/06/15 02:43:01;;;;;;;0.20;0.20;;;;;;;14.12;80.10;101208.00;5069019;28;20044;-91
2021/06/15 02:45:56;;;;;;;0.13;0.13;;;;;;;14.67;79.95;101280.81;5057883;28;20050;-92
2021/06/15 02:48:35;;;;;;;0.10;0.10;;;;;;;14.57;79.44;101262.50;5058583;28;20048;-93
2021/06/15 02:51:06;;;;;;;0.20;0.20;;;;;;;14.21;79.61;101206.28;5040788;28;20064;-92
2021/06/15 02:53:45;;;;;;;0.10;0.10;;;;;;;14.56;79.92;101285.56;5054618;28;20044;-91
2021/06/15 02:56:18;;;;;;;0.20;0.20;;;;;;;14.48;79.08;101259.63;5056949;28;20068;-93
2021/06/15 02:58:49;;;;;;;0.10;0.10;;;;;;;14.67;79.47;101287.09;5050347;28;20037;-92
2021/06/15 03:01:23;;;;;;;0.20;0.20;;;;;;;14.51;80.21;101285.59;5051313;28;20045;-90
2021/06/15 03:03:59;;;;;;;0.13;0.13;;;;;;;14.54;79.47;101295.97;5048387;28;20052;-90
2021/06/15 03:06:35;;;;;;;0.20;0.20;;;;;;;14.49;80.83;101299.59;5051792;28;20037;-90
2021/06/15 03:09:04;;;;;;;0.20;0.20;;;;;;;14.17;80.28;101239.97;5044070;28;20045;-93
2021/06/15 03:11:36;;;;;;;0.20;0.20;;;;;;;14.46;80.30;101300.19;5045342;28;20565;-92
2021/06/15 03:14:10;;;;;;;0.20;0.20;;;;;;;14.25;80.48;101273.03;5059081;28;20049;-92
2021/06/15 03:16:49;;;;;;;0.17;0.17;;;;;;;14.49;80.33;101321.50;5051551;28;20053;-91
2021/06/15 03:19:23;;;;;;;0.20;0.20;;;;;;;14.09;80.49;101277.81;5071801;28;20123;-91
2021/06/15 03:22:03;;;;;;;0.10;0.10;;;;;;;14.11;80.48;101277.53;5059477;28;20060;-91
2021/06/15 03:24:34;;;;;;;0.20;0.20;;;;;;;14.43;80.30;101322.66;5058732;28;20041;-92
2021/06/15 03:27:06;;;;;;;0.13;0.13;;;;;;;14.33;80.55;101314.56;5055708;28;20057;-91
2021/06/15 03:29:44;;;;;;;0.20;0.20;;;;;;;14.32;80.14;101297.31;5051584;28;20088;-92
2021/06/15 03:32:20;;;;;;;0.15;0.15;;;;;;;14.39;80.76;101335.28;5047035;28;20064;-93
2021/06/15 03:34:57;;;;;;;0.20;0.20;;;;;;;13.94;79.96;101259.63;5055727;28;20048;-90
2021/06/15 03:37:33;;;;;;;0.15;0.15;;;;;;;14.48;79.69;101327.28;5054846;28;20044;-91
2021/06/15 03:40:08;;;;;;;0.10;0.10;;;;;;;14.41;79.34;101333.91;5061354;28;20037;-92
2021/06/15 03:42:40;;;;;;;0.20;0.20;;;;;;;14.00;79.50;101276.00;5067318;28;20048;-91
2021/06/15 03:45:18;;;;;;;0.10;0.10;;;;;;;14.32;79.21;101334.81;5055160;28;20060;-92
2021/06/15 03:47:50;;;;;;;0.05;0.05;;;;;;;14.34;79.29;101340.84;5039225;28;20037;-91
2021/06/15 03:50:21;;;;;;;0.20;0.20;;;;;;;14.33;79.25;101314.56;5052087;28;20497;-91
2021/06/15 03:52:53;;;;;;;0.10;0.10;;;;;;;14.12;78.46;101307.34;5019861;28;20533;-91
2021/06/15 03:55:48;;;;;;;0.10;0.10;;;;;;;14.17;77.97;101344.81;5061173;28;20071;-91
2021/06/15 03:58:22;;;;;;;0.20;0.20;;;;;;;14.18;77.22;101351.91;5064145;28;20049;-91
2021/06/15 04:00:53;;;;;;;0.20;0.20;;;;;;;14.15;76.95;101355.22;5052295;28;20057;-93
2021/06/15 04:03:30;;;;;;;0.10;0.10;;;;;;;13.46;77.11;101266.88;5066835;28;20386;-90
2021/06/15 04:06:07;;;;;;;0.10;0.10;;;;;;;13.67;77.50;101303.09;5048059;28;20053;-92
2021/06/15 04:08:37;;;;;;;0.10;0.10;;;;;;;13.76;76.75;101302.19;5065675;28;20053;-92
2021/06/15 04:11:14;;;;;;;0.20;0.20;;;;;;;13.76;78.24;101340.50;5058519;28;20053;-89
2021/06/15 04:13:43;;;;;;;0.15;0.15;;;;;;;13.31;76.31;101265.84;5062093;28;20048;-93
2021/06/15 04:16:17;;;;;;;0.10;0.10;;;;;;;13.45;76.39;101304.38;5067822;28;20505;-93
2021/06/15 04:18:48;;;;;;;0.10;0.10;;;;;;;13.62;75.32;101309.44;5066778;28;20162;-94
2021/06/15 04:21:52;;;;;;;0.20;0.20;;;;;;;13.70;76.18;101355.31;5063216;28;20045;-92
2021/06/15 04:24:25;;;;;;;0.10;0.10;;;;;;;13.58;76.04;101333.78;5066137;28;20068;-92
2021/06/15 04:28:01;;;;;;;0.10;0.10;;;;;;;13.75;75.84;101362.66;5069422;28;20053;-90
2021/06/15 04:30:30;;;;;;;0.10;0.10;;;;;;;13.04;74.11;101275.31;5044367;28;20076;-94
2021/06/15 04:33:57;;;;;;;0.10;0.10;;;;;;;13.52;74.46;101362.28;5052829;28;20046;-90
2021/06/15 04:36:33;;;;;;;0.10;0.10;;;;;;;13.41;74.75;101368.91;5060988;28;20055;-91
2021/06/15 04:39:39;;;;;;;0.10;0.10;;;;;;;13.58;74.03;101377.53;5061030;28;20049;-91
2021/06/15 04:42:16;;;;;;;0.13;0.13;;;;;;;13.37;75.13;101374.13;5039728;28;20050;-91
2021/06/15 04:44:48;;;;;;;0.20;0.20;;;;;;;13.52;74.49;101395.09;5041028;28;20064;-91
2021/06/15 04:47:42;;;;;;;0.20;0.20;;;;;;;13.46;74.97;101400.88;5050366;28;20049;-90
2021/06/15 04:50:43;;;;;;;0.10;0.10;;;;;;;13.48;73.65;101398.66;5041508;28;20477;-91
2021/06/15 04:53:18;;;;;;;0.17;0.17;;;;;;;13.28;74.03;101405.84;5042702;28;20056;-92
2021/06/15 04:56:21;;;;;;;0.10;0.10;;;;;;;13.29;73.98;101406.66;5047018;28;20052;-91
2021/06/15 04:59:03;;;;;;;0.10;0.10;;;;;;;13.33;73.17;101415.94;5041414;28;20076;-92
2021/06/15 05:01:37;;;;;;;0.10;0.10;;;;;;;13.43;74.01;101427.66;5054815;28;20049;-91
2021/06/15 05:04:18;;;;;;;0.10;0.10;;;;;;;13.20;73.67;101403.69;5042144;28;20057;-93
2021/06/15 05:06:47;;;;;;;0.13;0.13;;;;;;;13.25;73.97;101420.88;5037325;28;20042;-92
2021/06/15 05:09:16;;;;;;;0.10;0.10;;;;;;;12.86;73.78;101363.38;5055906;28;20052;-91
2021/06/15 05:11:49;;;;;;;0.10;0.10;;;;;;;13.37;73.02;101431.53;5047444;28;20060;-94
2021/06/15 05:14:19;;;;;;;0.10;0.10;;;;;;;13.13;73.66;101393.03;5046743;28;20060;-91
2021/06/15 05:16:49;;;;;;;0.10;0.10;;;;;;;13.45;73.48;101430.13;5044314;28;20045;-90
2021/06/15 05:19:17;;;;;;;0.20;0.20;;;;;;;13.45;73.56;101421.94;5049753;28;20057;-92
2021/06/15 05:21:53;;;;;;;0.10;0.10;;;;;;;13.49;73.82;101424.91;5041836;28;20519;-91
2021/06/15 05:24:49;;;;;;;0.20;0.20;;;;;;;13.24;74.11;101404.75;5050552;28;20068;-91
2021/06/15 05:32:29;;;;;;;0.10;0.10;;;;;;;13.43;73.77;101424.91;5045027;28;20401;-93
2021/06/15 05:35:28;;;;;;;;;;;;;;;13.55;73.98;101426.53;5036946;28;20057;-93
2021/06/15 05:38:23;;;;;;;0.20;0.20;;;;;;;13.49;74.67;101417.53;5039447;28;19924;-91
2021/06/15 05:40:59;;;;;;;0.20;0.20;;;;;;;13.52;74.35;101413.41;5035630;28;20053;-91
2021/06/15 05:43:33;;;;;;;0.10;0.10;;;;;;;13.32;73.43;101373.28;5047089;28;20045;-90
2021/06/15 05:46:06;;;;;;;0.20;0.20;;;;;;;13.61;74.09;101419.91;5052856;28;20045;-91
2021/06/15 05:48:39;;;;;;;0.20;0.20;;;;;;;13.43;74.70;101422.19;5046582;28;20057;-92
2021/06/15 05:51:35;;;;;;;0.20;0.20;;;;;;;13.73;72.79;101420.41;5035717;28;20057;-90
2021/06/15 05:54:10;;;;;;;0.10;0.10;;;;;;;13.45;73.22;101383.66;5042485;28;20053;-91
2021/06/15 05:56:38;;;;;;;0.15;0.15;;;;;;;13.33;73.18;101403.09;5039425;28;20053;-92
2021/06/15 05:59:36;;;;;;;0.10;0.10;;;;;;;13.59;73.89;101442.09;5044511;28;20060;-93
2021/06/15 06:02:14;;;;;;;0.20;0.20;;;;;;;13.49;72.41;101430.38;5042344;28;20042;-94
2021/06/15 06:05:02;;;;;;;0.20;0.20;;;;;;;13.54;73.35;101430.34;5040817;28;20049;-94
2021/06/15 06:11:01;;;;;;;0.20;0.20;;;;;;;13.69;71.42;101465.00;5058632;28;19931;-91
2021/06/15 06:14:02;;;;;;;0.20;0.20;;;;;;;13.60;71.96;101468.34;5042967;28;20421;-92
2021/06/15 06:16:36;;;;;;;0.20;0.20;;;;;;;13.84;71.09;101467.66;5035662;28;20050;-91
2021/06/15 06:19:11;;;;;;;0.10;0.10;;;;;;;13.88;70.12;101459.69;5033055;28;20053;-90
2021/06/15 06:21:45;;;;;;;0.20;0.20;;;;;;;13.93;70.23;101465.13;5051990;28;20940;-93
2021/06/15 06:24:19;;;;;;;0.10;0.10;;;;;;;13.95;70.47;101465.69;5064675;28;20040;-92
2021/06/15 06:26:50;;;;;;;0.20;0.20;;;;;;;14.03;71.84;101473.31;5048568;28;20050;-91
2021/06/15 06:29:23;;;;;;;0.10;0.10;;;;;;;13.76;70.11;101419.81;5048999;28;20053;-93
2021/06/15 06:31:51;;;;;;;0.20;0.20;;;;;;;13.98;69.75;101467.03;5054903;28;20498;-91
2021/06/15 06:35:16;;;;;;;0.20;0.20;;;;;;;14.01;70.24;101471.94;5053203;28;20052;-94
2021/06/15 06:38:19;;;;;;;0.10;0.10;;;;;;;14.31;70.46;101473.66;5042687;28;20042;-91
2021/06/15 06:40:48;;;;;;;0.10;0.10;;;;;;;14.24;67.79;101478.63;5042855;28;20088;-91
2021/06/15 06:43:22;;;;;;;0.10;0.10;;;;;;;14.19;68.85;101479.47;5049990;28;20053;-89
2021/06/15 06:45:52;;;;;;;0.10;0.10;;;;;;;13.96;69.51;101434.47;5045968;28;20056;-92
2021/06/15 06:48:21;;;;;;;0.10;0.10;;;;;;;14.33;70.33;101459.66;5051745;28;20432;-90
2021/06/15 06:50:55;;;;;;;0.10;0.10;;;;;;;14.49;68.80;101483.09;5048061;28;20497;-91
2021/06/15 06:53:32;;;;;;;0.10;0.10;;;;;;;14.49;69.24;101485.03;5035858;28;20049;-90
2021/06/15 06:56:31;;;;;;;0.10;0.10;;;;;;;14.57;67.18;101487.94;5030298;28;20049;-88
2021/06/15 06:59:09;;;;;;;0.10;0.10;;;;;;;14.73;67.29;101490.56;5048116;28;20055;-92
2021/06/15 07:01:44;;;;;;;0.10;0.10;;;;;;;14.59;68.16;101502.16;5032546;28;20053;-92
2021/06/15 07:04:17;;;;;;;0.10;0.10;;;;;;;14.42;67.60;101507.25;5031305;28;20060;-94
2021/06/15 07:06:49;;;;;;;0.10;0.10;;;;;;;14.31;68.45;101483.75;5042936;28;20073;-91
2021/06/15 07:09:26;;;;;;;0.20;0.20;;;;;;;14.86;66.35;101514.56;5046017;28;20041;-92
2021/06/15 07:12:01;;;;;;;0.10;0.10;;;;;;;15.23;65.40;101506.78;5035657;28;20060;-92
2021/06/15 07:14:38;;;;;;;0.20;0.20;;;;;;;14.81;65.83;101454.34;5032559;28;20049;-93
2021/06/15 07:17:06;;;;;;;0.28;0.28;;;;;;;14.94;65.91;101466.53;5037568;28;20079;-91
2021/06/15 07:19:45;;;;;;;0.13;0.13;;;;;;;14.99;66.03;101460.19;5048061;28;20049;-93
2021/06/15 07:22:21;;;;;;;0.20;0.20;;;;;;;15.21;64.36;101511.75;5054637;28;20036;-93
2021/06/15 07:24:52;;;;;;;0.20;0.20;;;;;;;15.27;65.24;101505.09;5062130;28;20056;-88
2021/06/15 07:27:27;;;;;;;0.17;0.17;;;;;;;15.33;65.11;101497.63;5048455;28;20060;-93
2021/06/15 07:30:03;;;;;;;0.20;0.20;;;;;;;15.04;64.69;101473.81;5046078;28;20073;-89
2021/06/15 07:32:31;;;;;;;0.10;0.10;;;;;;;15.59;64.27;101514.59;5046081;28;20060;-89
2021/06/15 07:35:00;;;;;;;0.10;0.10;;;;;;;14.98;64.83;101434.69;5043336;28;20064;-92
2021/06/15 07:37:28;;;;;;;0.20;0.20;;;;;;;15.08;62.62;101452.94;5041907;28;20060;-93
2021/06/15 07:39:58;;;;;;;0.20;0.20;;;;;;;15.51;64.04;101513.34;5048474;28;20049;-90
2021/06/15 07:42:37;;;;;;;0.10;0.10;;;;;;;15.19;64.31;101435.28;5052042;28;20048;-91
2021/06/15 07:45:08;;;;;;;0.20;0.20;;;;;;;15.75;62.76;101507.00;5046605;28;20056;-91
2021/06/15 07:47:41;;;;;;;0.10;0.10;;;;;;;15.20;63.27;101478.03;5052338;28;20044;-90
2021/06/15 07:50:16;;;;;;;0.10;0.10;;;;;;;15.17;62.47;101489.59;5046145;28;20061;-93
2021/06/15 07:52:46;;;;;;;0.20;0.20;;;;;;;15.26;60.76;101459.59;5048632;28;20060;-88
2021/06/15 07:55:16;;;;;;;0.15;0.15;;;;;;;15.53;62.12;101486.41;5045917;28;20045;-90
2021/06/15 07:57:47;;;;;;;0.10;0.10;;;;;;;15.40;59.91;101459.72;5040996;28;20068;-91
2021/06/15 08:00:19;;;;;;;0.20;0.20;;;;;;;15.61;61.04;101506.91;5043896;28;20068;-89
2021/06/15 08:02:55;;;;;;;0.20;0.20;;;;;;;15.87;64.10;101512.91;5046026;28;20067;-89
2021/06/15 08:05:26;;;;;;;0.20;0.20;;;;;;;15.47;62.96;101482.94;5052662;28;20048;-87
2021/06/15 08:07:55;;;;;;;0.13;0.13;;;;;;;15.83;63.57;101494.59;5042917;28;20702;-93
2021/06/15 08:10:25;;;;;;;0.10;0.10;;;;;;;15.84;61.23;101474.25;5044243;28;20063;-91
2021/06/15 08:12:54;;;;;;;0.10;0.10;;;;;;;15.78;61.65;101482.53;5043242;28;20041;-90
2021/06/15 08:15:41;;;;;;;0.10;0.10;;;;;;;15.76;61.21;101503.16;5048531;28;20072;-90
2021/06/15 08:18:10;;;;;;;0.10;0.10;;;;;;;16.02;61.01;101516.53;5045218;28;20049;-90
2021/06/15 08:20:44;;;;;;;0.17;0.17;;;;;;;15.89;60.82;101496.94;5043591;28;20053;-90
2021/06/15 08:23:17;;;;;;;0.17;0.17;;;;;;;15.76;57.79;101503.16;5042142;28;20056;-88
2021/06/15 08:25:50;;;;;;;0.20;0.20;;;;;;;15.29;60.35;101456.28;5045916;28;20114;-89
2021/06/15 08:28:20;;;;;;;0.20;0.20;;;;;;;15.97;57.53;101522.94;5045256;28;20057;-90
2021/06/15 08:30:51;;;;;;;0.10;0.10;;;;;;;15.80;58.54;101488.56;5043982;28;20056;-91
2021/06/15 08:33:20;;;;;;;0.13;0.13;;;;;;;16.05;59.00;101505.00;5042638;28;20539;-88
2021/06/15 08:35:51;;;;;;;0.10;0.10;;;;;;;16.17;58.60;101488.06;5044166;28;20056;-92
2021/06/15 08:38:22;;;;;;;0.17;0.17;;;;;;;15.96;56.23;101493.84;5046842;28;20057;-87
2021/06/15 08:40:53;;;;;;;0.20;0.20;;;;;;;15.83;56.26;101489.09;5045800;28;20056;-91
2021/06/15 08:43:46;;;;;;;0.20;0.20;;;;;;;16.27;57.29;101524.41;5045722;28;20072;-90
2021/06/15 08:46:17;;;;;;;0.17;0.17;;;;;;;15.79;58.99;101469.63;5042898;28;20067;-92
2021/06/15 08:48:46;;;;;;;0.10;0.10;;;;;;;16.07;58.02;101498.06;5043218;28;20056;-88
2021/06/15 08:51:15;;;;;;;0.15;0.15;;;;;;;15.95;57.90;101478.47;5046415;28;20068;-90
2021/06/15 08:54:15;;;;;;;0.10;0.10;;;;;;;16.22;59.07;101520.94;5044343;28;20056;-90
2021/06/15 08:56:46;;;;;;;0.10;0.10;;;;;;;15.86;58.65;101489.31;5044350;28;20067;-91
2021/06/15 08:59:20;;;;;;;0.20;0.20;;;;;;;15.69;60.35;101488.97;5042709;28;20053;-88
2021/06/15 09:01:54;;;;;;;0.10;0.10;;;;;;;15.80;57.63;101432.88;5043576;28;20063;-92
2021/06/15 09:04:23;;;;;;;0.20;0.20;;;;;;;16.20;58.83;101441.59;5046600;28;20064;-89
2021/06/15 09:06:56;;;;;;;0.20;0.20;;;;;;;16.32;57.73;101485.91;5041094;28;20064;-91
2021/06/15 09:09:37;;;;;;;0.20;0.20;;;;;;;16.64;58.21;101470.53;5044724;28;20053;-91
2021/06/15 09:12:07;;;;;;;0.20;0.20;;;;;;;16.84;56.84;101496.00;5049065;28;20059;-91
2021/06/15 09:15:00;;;;;;;0.10;0.10;;;;;;;17.08;58.03;101519.81;5045846;28;20064;-92
2021/06/15 09:17:36;;;;;;;0.20;0.20;;;;;;;16.32;56.09;101468.56;5043211;28;20060;-89
2021/06/15 09:20:18;;;;;;;0.20;0.20;;;;;;;16.15;56.65;101510.31;4988220;28;20099;-92
2021/06/15 09:22:57;;;;;;;0.20;0.20;;;;;;;16.08;56.22;101502.44;5008662;28;20053;-92
2021/06/15 09:25:28;;;;;;;0.10;0.10;;;;;;;16.60;56.48;101475.00;4995904;28;20069;-90
2021/06/15 09:27:58;;;;;;;0.20;0.20;;;;;;;17.09;59.21;101494.75;5003095;28;20241;-91
2021/06/15 09:30:30;;;;;;;0.10;0.10;;;;;;;16.56;54.93;101473.97;5009717;28;20061;-90
2021/06/15 09:33:11;;;;;;;0.10;0.10;;;;;;;16.28;56.90;101467.53;4991019;28;20060;-88
2021/06/15 09:35:39;;;;;;;0.10;0.10;;;;;;;16.84;55.95;101498.75;5009614;28;20061;-90
2021/06/15 09:38:12;;;;;;;0.20;0.20;;;;;;;16.98;54.60;101524.38;5001846;28;20053;-91
2021/06/15 09:40:43;;;;;;;0.10;0.10;;;;;;;17.17;56.17;101472.03;5014687;28;20054;-91
2021/06/15 09:43:20;;;;;;;0.10;0.10;;;;;;;17.11;56.94;101519.19;5010909;28;20057;-92
2021/06/15 09:45:49;;;;;;;0.20;0.20;;;;;;;16.68;56.79;101525.69;5010261;28;20049;-87
2021/06/15 09:48:31;;;;;;;0.10;0.10;;;;;;;16.20;56.87;101499.25;4993771;28;20045;-93
2021/06/15 09:51:02;;;;;;;0.38;0.10;;;;;;;16.16;57.42;101479.00;5008398;28;20052;-90
2021/06/15 09:53:34;;;;;;;0.10;0.10;;;;;;;16.47;58.89;101481.25;5041229;28;20053;-90
2021/06/15 09:56:12;;;;;;;0.20;0.20;;;;;;;16.96;54.58;101523.88;5040329;28;20057;-90
2021/06/15 09:58:44;;;;;;;0.10;0.10;;;;;;;17.15;55.10;101514.72;5043119;28;20052;-90
2021/06/15 10:01:24;;;;;;;0.15;0.15;;;;;;;16.75;53.97;101522.56;5044768;28;20067;-91
2021/06/15 10:04:15;;;;;;;0.10;0.10;;;;;;;16.64;55.75;101528.22;5045014;28;20053;-92
2021/06/15 10:07:33;;;;;;;0.13;0.13;;;;;;;16.46;55.54;101529.06;5046131;28;20060;-90
2021/06/15 10:10:08;;;;;;;0.10;0.10;;;;;;;16.78;53.98;101509.03;5044554;28;20072;-92
2021/06/15 10:12:37;;;;;;;0.15;0.15;;;;;;;17.07;51.95;101510.75;5040979;28;21233;-92
2021/06/15 10:15:09;;;;;;;0.10;0.10;;;;;;;17.40;51.54;101483.16;5041694;28;20734;-91
2021/06/15 10:17:39;;;;;;;0.10;0.10;;;;;;;17.37;51.00;101444.44;5018853;28;20436;-92
2021/06/15 10:20:13;;;;;;;0.15;0.15;;;;;;;17.47;50.54;101478.06;5037195;28;20055;-91
2021/06/15 10:22:45;;;;;;;0.20;0.20;;;;;;;18.33;52.59;101523.25;5039727;28;20057;-89
2021/06/15 10:25:15;;;;;;;0.10;0.10;;;;;;;17.76;49.39;101485.16;5047922;28;20053;-93
2021/06/15 10:27:44;;;;;;;0.20;0.20;;;;;;;17.83;51.45;101468.22;5041532;28;20052;-91
2021/06/15 10:30:16;;;;;;;0.10;0.10;;;;;;;18.06;48.83;101504.88;5039841;28;20060;-89
2021/06/15 10:32:53;;;;;;;0.10;0.10;;;;;;;17.87;50.46;101490.41;5046442;28;20052;-89
2021/06/15 10:35:37;;;;;;;;;;;;;;;17.97;50.52;101509.50;5039972;28;20052;-88
2021/06/15 10:38:09;;;;;;;0.17;0.17;;;;;;;18.22;50.38;101491.56;5035822;28;19929;-90
2021/06/15 10:40:53;;;;;;;0.10;0.10;;;;;;;18.86;51.20;101512.59;5038548;28;20057;-86
2021/06/15 10:43:30;;;;;;;0.10;0.10;;;;;;;17.70;51.00;101430.50;5041304;28;20071;-89
2021/06/15 10:46:07;;;;;;;0.10;0.10;;;;;;;17.38;52.34;101493.63;5041206;28;20057;-87
2021/06/15 10:48:43;;;;;;;;;;;;;;;17.30;52.14;101513.59;5043015;28;20052;-91
2021/06/15 10:51:34;;;;;;;0.10;0.10;;;;;;;17.06;51.73;101467.06;5040667;28;20011;-89
2021/06/15 10:54:25;;;;;;;0.10;0.10;;;;;;;17.27;53.37;101501.28;5043764;28;20059;-91
2021/06/15 10:57:14;;;;;;;0.20;0.20;;;;;;;17.62;50.71;101520.13;5043464;28;20770;-88
2021/06/15 11:00:07;;;;;;;0.20;0.20;;;;;;;17.55;50.32;101512.28;5039903;28;20057;-91
2021/06/15 11:02:37;;;;;;;0.20;0.20;;;;;;;17.97;52.51;101507.56;5049395;28;20056;-87
2021/06/15 11:05:40;;;;;;;0.10;0.10;;;;;;;18.15;51.35;101510.47;5048505;28;20075;-90
2021/06/15 11:08:18;;;;;;;0.10;0.10;;;;;;;18.51;52.45;101495.84;5043232;28;20064;-88
2021/06/15 11:10:49;;;;;;;0.10;0.10;;;;;;;18.15;52.60;101480.97;5043263;28;20057;-91
2021/06/15 11:13:42;;;;;;;0.10;0.10;;;;;;;18.37;49.91;101471.09;5046397;28;20053;-86
2021/06/15 11:16:28;;;;;;;0.10;0.10;;;;;;;17.88;48.66;101470.81;5042172;28;20052;-90
2021/06/15 11:19:32;;;;;;;0.20;0.20;;;;;;;17.98;49.22;101503.69;5016639;28;20044;-86
2021/06/15 11:22:02;;;;;;;0.10;0.10;;;;;;;18.14;51.33;101456.50;5043330;28;20064;-91
2021/06/15 11:24:49;;;;;;;0.20;0.20;;;;;;;18.44;49.89;101485.25;5040161;28;20049;-90
2021/06/15 11:27:37;;;;;;;0.10;0.10;;;;;;;18.70;48.76;101509.41;5042471;28;20689;-88
2021/06/15 11:30:21;;;;;;;0.15;0.15;;;;;;;17.30;50.94;101425.56;5038610;28;21411;-92
2021/06/15 11:33:03;;;;;;;0.20;0.20;;;;;;;17.38;50.63;101466.13;5042924;28;20053;-88
2021/06/15 11:35:40;;;;;;;0.10;0.10;;;;;;;17.84;50.41;101483.59;5047773;28;20056;-90
2021/06/15 11:38:25;;;;;;;0.17;0.17;;;;;;;18.19;49.50;101505.97;5043411;28;20049;-89
2021/06/15 11:40:55;;;;;;;0.10;0.10;;;;;;;17.78;49.42;101451.78;5044670;28;20306;-91
2021/06/15 11:43:56;;;;;;;0.20;0.20;;;;;;;18.66;48.76;101511.19;5045410;28;20057;-89
2021/06/15 11:46:24;;;;;;;0.10;0.10;;;;;;;17.97;49.29;101465.44;5052376;28;20075;-89
2021/06/15 11:49:10;;;;;;;0.10;0.10;;;;;;;18.59;48.92;101481.28;5038662;28;20064;-91
2021/06/15 11:51:39;;;;;;;0.20;0.20;;;;;;;18.82;49.09;101482.09;5045326;28;20072;-89
2021/06/15 11:54:13;;;;;;;0.10;0.10;;;;;;;18.51;46.79;101460.81;5046043;28;21398;-89
2021/06/15 11:56:49;;;;;;;0.10;0.10;;;;;;;18.94;46.57;101478.75;5041473;28;20578;-91
2021/06/15 11:59:18;;;;;;;0.10;0.10;;;;;;;19.54;48.97;101487.56;5056479;28;21572;-90
2021/06/15 12:01:46;;;;;;;0.10;0.10;;;;;;;18.48;47.23;101447.66;5038993;28;20057;-91
2021/06/15 12:04:18;;;;;;;0.20;0.20;;;;;;;18.08;48.17;101493.56;5044980;28;20043;-87
2021/06/15 12:07:16;;;;;;;0.17;0.17;;;;;;;18.28;49.64;101493.06;5039141;28;20054;-88
2021/06/15 12:10:09;;;;;;;0.20;0.20;;;;;;;18.75;50.86;101491.91;5038257;28;20064;-87
2021/06/15 12:13:14;;;;;;;0.10;0.10;;;;;;;19.33;49.94;101479.06;5043090;28;20052;-91
2021/06/15 12:15:55;;;;;;;0.13;0.13;;;;;;;19.66;48.50;101471.16;5036837;28;20072;-87
2021/06/15 12:18:32;;;;;;;0.30;0.20;;;;;;;19.83;46.17;101456.63;5016211;28;20072;-87
2021/06/15 12:21:08;;;;;;;0.20;0.20;;;;;;;19.38;47.74;101485.25;5046851;28;20042;-90
2021/06/15 12:23:46;;;;;;;0.10;0.10;;;;;;;19.28;47.20;101491.06;5044184;28;20060;-92
2021/06/15 12:26:25;;;;;;;0.17;0.17;;;;;;;19.22;46.68;101488.75;5043053;28;20107;-90
2021/06/15 12:29:01;;;;;;;0.10;0.10;;;;;;;19.15;47.76;101480.94;5048047;28;20056;-92
2021/06/15 12:31:38;;;;;;;0.10;0.10;;;;;;;18.99;50.28;101477.81;5050628;28;20057;-88
2021/06/15 12:34:16;;;;;;;0.10;0.10;;;;;;;19.22;48.83;101484.06;5041868;28;20053;-90
2021/06/15 12:36:52;;;;;;;0.10;0.10;;;;;;;18.79;47.03;101484.66;5052190;28;20045;-91
2021/06/15 12:39:22;;;;;;;0.20;0.20;;;;;;;19.10;47.33;101484.66;5041141;28;20052;-86
2021/06/15 12:41:53;;;;;;;0.10;0.10;;;;;;;19.29;45.74;101478.06;5038301;28;20115;-90